sensor_id;sensor_type;location;lat;lon;timestamp;temperature;humidity
22996;DHT22;11664;49.774;8.650;2023-12-20T00:00:36;5.50;99.90
22996;DHT22;11664;49.774;8.650;2023-12-20T00:03:07;5.50;99.90
22996;DHT22;11664;49.774;8.650;2023-12-20T00:05:36;5.50;99.90
22996;DHT22;11664;49.774;8.650;2023-12-20T00:08:06;5.50;99.90
22996;DHT22;11664;49.774;8.650;2023-12-20T00:10:35;5.50;99.90
22996;DHT22;11664;49.774;8.650;2023-12-20T00:13:03;5.50;99.90
22996;DHT22;11664;49.774;8.650;2023-12-20T00:15:29;5.40;99.90
22996;DHT22;11664;49.774;8.650;2023-12-20T00:18:07;5.40;99.90
22996;DHT22;11664;49.774;8.650;2023-12-20T00:20:35;5.40;99.90
22996;DHT22;11664;49.774;8.650;2023-12-20T00:23:10;5.40;99.90
22996;DHT22;11664;49.774;8.650;2023-12-20T00:25:36;5.40;99.90
22996;DHT22;11664;49.774;8.650;2023-12-20T00:28:14;5.40;99.90
22996;DHT22;11664;49.774;8.650;2023-12-20T00:30:54;5.40;99.90
22996;DHT22;11664;49.774;8.650;2023-12-20T00:33:20;5.40;99.90
22996;DHT22;11664;49.774;8.650;2023-12-20T00:35:51;5.40;99.90
22996;DHT22;11664;49.774;8.650;2023-12-20T00:38:17;5.40;99.90
22996;DHT22;11664;49.774;8.650;2023-12-20T00:40:46;5.40;99.90
22996;DHT22;11664;49.774;8.650;2023-12-20T00:43:12;5.40;99.90
22996;DHT22;11664;49.774;8.650;2023-12-20T00:45:38;5.40;99.90
22996;DHT22;11664;49.774;8.650;2023-12-20T00:48:04;5.40;99.90
22996;DHT22;11664;49.774;8.650;2023-12-20T00:50:42;5.40;99.90
22996;DHT22;11664;49.774;8.650;2023-12-20T00:53:10;5.30;99.90
22996;DHT22;11664;49.774;8.650;2023-12-20T00:55:36;5.30;99.90
22996;DHT22;11664;49.774;8.650;2023-12-20T00:58:08;5.30;99.90
22996;DHT22;11664;49.774;8.650;2023-12-20T01:00:58;5.30;99.90
22996;DHT22;11664;49.774;8.650;2023-12-20T01:03:24;5.30;99.90
22996;DHT22;11664;49.774;8.650;2023-12-20T01:05:59;5.30;99.90
22996;DHT22;11664;49.774;8.650;2023-12-20T01:08:25;5.30;99.90
22996;DHT22;11664;49.774;8.650;2023-12-20T01:10:57;5.30;99.90
22996;DHT22;11664;49.774;8.650;2023-12-20T01:13:24;5.30;99.90
22996;DHT22;11664;49.774;8.650;2023-12-20T01:15:52;5.30;99.90
22996;DHT22;11664;49.774;8.650;2023-12-20T01:18:22;5.20;99.90
22996;DHT22;11664;49.774;8.650;2023-12-20T01:20:51;5.20;99.90
22996;DHT22;11664;49.774;8.650;2023-12-20T01:23:23;5.20;99.90
22996;DHT22;11664;49.774;8.650;2023-12-20T01:25:51;5.20;99.90
22996;DHT22;11664;49.774;8.650;2023-12-20T01:28:17;5.20;99.90
22996;DHT22;11664;49.774;8.650;2023-12-20T01:30:42;5.20;99.90
22996;DHT22;11664;49.774;8.650;2023-12-20T01:33:11;5.20;99.90
22996;DHT22;11664;49.774;8.650;2023-12-20T01:35:37;5.20;99.90
22996;DHT22;11664;49.774;8.650;2023-12-20T01:38:02;5.20;99.90
22996;DHT22;11664;49.774;8.650;2023-12-20T01:40:34;5.20;99.90
22996;DHT22;11664;49.774;8.650;2023-12-20T01:43:18;5.10;99.90
22996;DHT22;11664;49.774;8.650;2023-12-20T01:45:50;5.20;99.90
22996;DHT22;11664;49.774;8.650;2023-12-20T01:48:16;5.10;99.90
22996;DHT22;11664;49.774;8.650;2023-12-20T01:50:59;5.20;99.90
22996;DHT22;11664;49.774;8.650;2023-12-20T01:53:25;5.20;99.90
22996;DHT22;11664;49.774;8.650;2023-12-20T01:55:58;5.10;99.90
22996;DHT22;11664;49.774;8.650;2023-12-20T01:58:39;5.10;99.90
22996;DHT22;11664;49.774;8.650;2023-12-20T02:01:06;5.10;99.90
22996;DHT22;11664;49.774;8.650;2023-12-20T02:03:38;5.10;99.90
22996;DHT22;11664;49.774;8.650;2023-12-20T02:06:04;5.10;99.90
22996;DHT22;11664;49.774;8.650;2023-12-20T02:09:01;5.10;99.90
22996;DHT22;11664;49.774;8.650;2023-12-20T02:11:36;5.10;99.90
22996;DHT22;11664;49.774;8.650;2023-12-20T02:14:02;5.10;99.90
22996;DHT22;11664;49.774;8.650;2023-12-20T02:16:27;5.10;99.90
22996;DHT22;11664;49.774;8.650;2023-12-20T02:18:58;5.10;99.90
22996;DHT22;11664;49.774;8.650;2023-12-20T02:21:32;5.10;99.90
22996;DHT22;11664;49.774;8.650;2023-12-20T02:23:59;5.10;99.90
22996;DHT22;11664;49.774;8.650;2023-12-20T02:26:28;5.10;99.90
22996;DHT22;11664;49.774;8.650;2023-12-20T02:28:54;5.10;99.90
22996;DHT22;11664;49.774;8.650;2023-12-20T02:31:26;5.10;99.90
22996;DHT22;11664;49.774;8.650;2023-12-20T02:34:07;5.10;99.90
22996;DHT22;11664;49.774;8.650;2023-12-20T02:36:35;5.10;99.90
22996;DHT22;11664;49.774;8.650;2023-12-20T02:39:04;5.10;99.90
22996;DHT22;11664;49.774;8.650;2023-12-20T02:41:29;5.10;99.90
22996;DHT22;11664;49.774;8.650;2023-12-20T02:44:02;5.10;99.90
22996;DHT22;11664;49.774;8.650;2023-12-20T02:46:27;5.10;99.90
22996;DHT22;11664;49.774;8.650;2023-12-20T02:48:56;5.10;99.90
22996;DHT22;11664;49.774;8.650;2023-12-20T02:51:24;5.10;99.90
22996;DHT22;11664;49.774;8.650;2023-12-20T02:54:09;5.10;99.90
22996;DHT22;11664;49.774;8.650;2023-12-20T02:56:43;5.20;99.90
22996;DHT22;11664;49.774;8.650;2023-12-20T02:59:09;5.20;99.90
22996;DHT22;11664;49.774;8.650;2023-12-20T03:01:35;5.20;99.90
22996;DHT22;11664;49.774;8.650;2023-12-20T03:04:03;5.20;99.90
22996;DHT22;11664;49.774;8.650;2023-12-20T03:06:38;5.10;99.90
22996;DHT22;11664;49.774;8.650;2023-12-20T03:09:13;5.20;99.90
22996;DHT22;11664;49.774;8.650;2023-12-20T03:12:06;5.20;99.90
22996;DHT22;11664;49.774;8.650;2023-12-20T03:14:31;5.20;99.90
22996;DHT22;11664;49.774;8.650;2023-12-20T03:17:06;5.20;99.90
22996;DHT22;11664;49.774;8.650;2023-12-20T03:19:40;5.20;99.90
22996;DHT22;11664;49.774;8.650;2023-12-20T03:22:06;5.20;99.90
22996;DHT22;11664;49.774;8.650;2023-12-20T03:24:34;5.20;99.90
22996;DHT22;11664;49.774;8.650;2023-12-20T03:27:00;5.20;99.90
22996;DHT22;11664;49.774;8.650;2023-12-20T03:29:25;5.20;99.90
22996;DHT22;11664;49.774;8.650;2023-12-20T03:35:13;5.30;99.90
22996;DHT22;11664;49.774;8.650;2023-12-20T03:38:09;5.30;99.90
22996;DHT22;11664;49.774;8.650;2023-12-20T03:40:38;5.30;99.90
22996;DHT22;11664;49.774;8.650;2023-12-20T03:43:07;5.40;99.90
22996;DHT22;11664;49.774;8.650;2023-12-20T03:45:37;5.40;99.90
22996;DHT22;11664;49.774;8.650;2023-12-20T03:48:06;5.40;99.90
22996;DHT22;11664;49.774;8.650;2023-12-20T03:50:35;5.40;99.90
22996;DHT22;11664;49.774;8.650;2023-12-20T03:53:16;5.30;99.90
22996;DHT22;11664;49.774;8.650;2023-12-20T03:55:47;5.30;99.90
22996;DHT22;11664;49.774;8.650;2023-12-20T03:58:13;5.30;99.90
22996;DHT22;11664;49.774;8.650;2023-12-20T04:00:41;5.30;99.90
22996;DHT22;11664;49.774;8.650;2023-12-20T04:03:07;5.30;99.90
22996;DHT22;11664;49.774;8.650;2023-12-20T04:05:40;5.30;99.90
22996;DHT22;11664;49.774;8.650;2023-12-20T04:08:11;5.30;99.90
22996;DHT22;11664;49.774;8.650;2023-12-20T04:10:44;5.40;99.90
22996;DHT22;11664;49.774;8.650;2023-12-20T04:13:27;5.40;99.90
22996;DHT22;11664;49.774;8.650;2023-12-20T04:15:56;5.30;99.90
22996;DHT22;11664;49.774;8.650;2023-12-20T04:18:34;5.40;99.90
22996;DHT22;11664;49.774;8.650;2023-12-20T04:20:59;5.40;99.90
22996;DHT22;11664;49.774;8.650;2023-12-20T04:23:31;5.40;99.90
22996;DHT22;11664;49.774;8.650;2023-12-20T04:25:59;5.40;99.90
22996;DHT22;11664;49.774;8.650;2023-12-20T04:28:29;5.40;99.90
22996;DHT22;11664;49.774;8.650;2023-12-20T04:31:04;5.50;99.90
22996;DHT22;11664;49.774;8.650;2023-12-20T04:33:36;5.50;99.90
22996;DHT22;11664;49.774;8.650;2023-12-20T04:36:01;5.50;99.90
22996;DHT22;11664;49.774;8.650;2023-12-20T04:38:30;5.50;99.90
22996;DHT22;11664;49.774;8.650;2023-12-20T04:40:55;5.50;99.90
22996;DHT22;11664;49.774;8.650;2023-12-20T04:43:36;5.50;99.90
22996;DHT22;11664;49.774;8.650;2023-12-20T04:46:05;5.50;99.90
22996;DHT22;11664;49.774;8.650;2023-12-20T04:48:31;5.50;99.90
22996;DHT22;11664;49.774;8.650;2023-12-20T04:51:02;5.50;99.90
22996;DHT22;11664;49.774;8.650;2023-12-20T04:53:37;5.50;99.90
22996;DHT22;11664;49.774;8.650;2023-12-20T04:56:06;5.50;99.90
22996;DHT22;11664;49.774;8.650;2023-12-20T04:58:37;5.50;99.90
22996;DHT22;11664;49.774;8.650;2023-12-20T05:01:04;5.50;99.90
22996;DHT22;11664;49.774;8.650;2023-12-20T05:03:37;5.60;99.90
22996;DHT22;11664;49.774;8.650;2023-12-20T05:06:05;5.50;99.90
22996;DHT22;11664;49.774;8.650;2023-12-20T05:08:37;5.50;99.90
22996;DHT22;11664;49.774;8.650;2023-12-20T05:11:05;5.60;99.90
22996;DHT22;11664;49.774;8.650;2023-12-20T05:13:50;5.60;99.90
22996;DHT22;11664;49.774;8.650;2023-12-20T05:16:15;5.60;99.90
22996;DHT22;11664;49.774;8.650;2023-12-20T05:18:43;5.50;99.90
22996;DHT22;11664;49.774;8.650;2023-12-20T05:21:12;5.50;99.90
22996;DHT22;11664;49.774;8.650;2023-12-20T05:23:37;5.50;99.90
22996;DHT22;11664;49.774;8.650;2023-12-20T05:26:06;5.40;99.90
22996;DHT22;11664;49.774;8.650;2023-12-20T05:28:31;5.30;99.90
22996;DHT22;11664;49.774;8.650;2023-12-20T05:31:00;5.30;99.90
22996;DHT22;11664;49.774;8.650;2023-12-20T05:33:26;5.30;99.90
22996;DHT22;11664;49.774;8.650;2023-12-20T05:35:54;5.30;99.90
22996;DHT22;11664;49.774;8.650;2023-12-20T05:38:23;5.40;99.90
22996;DHT22;11664;49.774;8.650;2023-12-20T05:41:03;5.40;99.90
22996;DHT22;11664;49.774;8.650;2023-12-20T05:43:32;5.40;99.90
22996;DHT22;11664;49.774;8.650;2023-12-20T05:48:49;5.40;99.90
22996;DHT22;11664;49.774;8.650;2023-12-20T05:51:17;5.40;99.90
22996;DHT22;11664;49.774;8.650;2023-12-20T05:53:48;5.40;99.90
22996;DHT22;11664;49.774;8.650;2023-12-20T05:56:18;5.40;99.90
22996;DHT22;11664;49.774;8.650;2023-12-20T05:58:46;5.40;99.90
22996;DHT22;11664;49.774;8.650;2023-12-20T06:01:39;5.30;99.90
22996;DHT22;11664;49.774;8.650;2023-12-20T06:04:08;5.20;99.90
22996;DHT22;11664;49.774;8.650;2023-12-20T06:06:33;5.10;99.90
22996;DHT22;11664;49.774;8.650;2023-12-20T06:08:59;5.00;99.90
22996;DHT22;11664;49.774;8.650;2023-12-20T06:11:27;4.90;99.90
22996;DHT22;11664;49.774;8.650;2023-12-20T06:13:53;5.00;99.90
22996;DHT22;11664;49.774;8.650;2023-12-20T06:16:25;5.00;99.90
22996;DHT22;11664;49.774;8.650;2023-12-20T06:18:56;5.00;99.90
22996;DHT22;11664;49.774;8.650;2023-12-20T06:21:25;5.10;99.90
22996;DHT22;11664;49.774;8.650;2023-12-20T06:23:50;5.10;99.90
22996;DHT22;11664;49.774;8.650;2023-12-20T06:26:16;5.10;99.90
22996;DHT22;11664;49.774;8.650;2023-12-20T06:28:48;5.10;99.90
22996;DHT22;11664;49.774;8.650;2023-12-20T06:31:13;5.10;99.90
22996;DHT22;11664;49.774;8.650;2023-12-20T06:33:45;5.10;99.90
22996;DHT22;11664;49.774;8.650;2023-12-20T06:36:16;5.10;99.90
22996;DHT22;11664;49.774;8.650;2023-12-20T06:38:48;5.00;99.90
22996;DHT22;11664;49.774;8.650;2023-12-20T06:41:26;4.80;99.90
22996;DHT22;11664;49.774;8.650;2023-12-20T06:43:51;4.70;99.90
22996;DHT22;11664;49.774;8.650;2023-12-20T06:46:18;4.70;99.90
22996;DHT22;11664;49.774;8.650;2023-12-20T06:48:50;4.60;99.90
22996;DHT22;11664;49.774;8.650;2023-12-20T06:51:23;4.70;99.90
22996;DHT22;11664;49.774;8.650;2023-12-20T06:53:57;4.70;99.90
22996;DHT22;11664;49.774;8.650;2023-12-20T06:56:28;4.50;99.90
22996;DHT22;11664;49.774;8.650;2023-12-20T06:58:54;4.40;99.90
22996;DHT22;11664;49.774;8.650;2023-12-20T07:01:25;4.30;99.90
22996;DHT22;11664;49.774;8.650;2023-12-20T07:03:54;4.20;99.90
22996;DHT22;11664;49.774;8.650;2023-12-20T07:06:22;4.10;99.90
22996;DHT22;11664;49.774;8.650;2023-12-20T07:08:48;4.00;99.90
22996;DHT22;11664;49.774;8.650;2023-12-20T07:11:14;3.90;99.90
22996;DHT22;11664;49.774;8.650;2023-12-20T07:13:51;3.90;99.90
22996;DHT22;11664;49.774;8.650;2023-12-20T07:16:25;3.90;99.90
22996;DHT22;11664;49.774;8.650;2023-12-20T07:18:54;3.90;99.90
22996;DHT22;11664;49.774;8.650;2023-12-20T07:21:19;3.90;99.90
22996;DHT22;11664;49.774;8.650;2023-12-20T07:23:54;3.90;99.90
22996;DHT22;11664;49.774;8.650;2023-12-20T07:26:19;4.00;99.90
22996;DHT22;11664;49.774;8.650;2023-12-20T07:28:45;4.00;99.90
22996;DHT22;11664;49.774;8.650;2023-12-20T07:31:15;4.00;99.90
22996;DHT22;11664;49.774;8.650;2023-12-20T07:34:02;4.00;99.90
22996;DHT22;11664;49.774;8.650;2023-12-20T07:36:37;4.00;99.90
22996;DHT22;11664;49.774;8.650;2023-12-20T07:39:05;4.10;99.90
22996;DHT22;11664;49.774;8.650;2023-12-20T07:41:31;4.20;99.90
22996;DHT22;11664;49.774;8.650;2023-12-20T07:43:59;4.20;99.90
22996;DHT22;11664;49.774;8.650;2023-12-20T07:46:25;4.30;99.90
22996;DHT22;11664;49.774;8.650;2023-12-20T07:48:57;4.40;99.90
22996;DHT22;11664;49.774;8.650;2023-12-20T07:51:22;4.50;99.90
22996;DHT22;11664;49.774;8.650;2023-12-20T07:53:51;4.60;99.90
22996;DHT22;11664;49.774;8.650;2023-12-20T07:56:23;4.70;99.90
22996;DHT22;11664;49.774;8.650;2023-12-20T07:59:06;4.80;99.90
22996;DHT22;11664;49.774;8.650;2023-12-20T08:01:35;4.90;99.90
22996;DHT22;11664;49.774;8.650;2023-12-20T08:04:07;4.90;99.90
22996;DHT22;11664;49.774;8.650;2023-12-20T08:06:36;5.00;99.90
22996;DHT22;11664;49.774;8.650;2023-12-20T08:09:01;5.10;99.90
22996;DHT22;11664;49.774;8.650;2023-12-20T08:11:46;5.10;99.90
22996;DHT22;11664;49.774;8.650;2023-12-20T08:14:15;5.10;99.90
22996;DHT22;11664;49.774;8.650;2023-12-20T08:16:40;5.00;99.90
22996;DHT22;11664;49.774;8.650;2023-12-20T08:19:18;4.90;99.90
22996;DHT22;11664;49.774;8.650;2023-12-20T08:21:46;5.00;99.90
22996;DHT22;11664;49.774;8.650;2023-12-20T08:24:12;4.90;99.90
22996;DHT22;11664;49.774;8.650;2023-12-20T08:26:37;4.90;99.90
22996;DHT22;11664;49.774;8.650;2023-12-20T08:29:09;5.00;99.90
22996;DHT22;11664;49.774;8.650;2023-12-20T08:31:35;5.00;99.90
22996;DHT22;11664;49.774;8.650;2023-12-20T08:34:06;5.10;99.90
22996;DHT22;11664;49.774;8.650;2023-12-20T08:36:47;5.30;99.90
22996;DHT22;11664;49.774;8.650;2023-12-20T08:39:12;5.30;99.90
22996;DHT22;11664;49.774;8.650;2023-12-20T08:41:49;5.30;99.90
22996;DHT22;11664;49.774;8.650;2023-12-20T08:44:17;5.40;99.90
22996;DHT22;11664;49.774;8.650;2023-12-20T08:46:43;5.50;99.90
22996;DHT22;11664;49.774;8.650;2023-12-20T08:49:08;5.40;99.90
22996;DHT22;11664;49.774;8.650;2023-12-20T08:51:38;5.40;99.90
22996;DHT22;11664;49.774;8.650;2023-12-20T08:54:12;5.40;99.90
22996;DHT22;11664;49.774;8.650;2023-12-20T08:56:45;5.50;99.90
22996;DHT22;11664;49.774;8.650;2023-12-20T08:59:17;5.50;99.90
22996;DHT22;11664;49.774;8.650;2023-12-20T09:01:47;5.50;99.90
22996;DHT22;11664;49.774;8.650;2023-12-20T09:04:13;5.60;99.90
22996;DHT22;11664;49.774;8.650;2023-12-20T09:06:39;5.50;99.90
22996;DHT22;11664;49.774;8.650;2023-12-20T09:09:14;5.50;99.90
22996;DHT22;11664;49.774;8.650;2023-12-20T09:11:45;5.60;99.90
22996;DHT22;11664;49.774;8.650;2023-12-20T09:14:13;5.60;99.90
22996;DHT22;11664;49.774;8.650;2023-12-20T09:16:45;5.50;99.90
22996;DHT22;11664;49.774;8.650;2023-12-20T09:19:11;5.60;99.90
22996;DHT22;11664;49.774;8.650;2023-12-20T09:21:36;5.60;99.90
22996;DHT22;11664;49.774;8.650;2023-12-20T09:24:11;5.50;99.90
22996;DHT22;11664;49.774;8.650;2023-12-20T09:26:37;5.50;99.90
22996;DHT22;11664;49.774;8.650;2023-12-20T09:29:05;5.60;99.90
22996;DHT22;11664;49.774;8.650;2023-12-20T09:31:32;5.50;99.90
22996;DHT22;11664;49.774;8.650;2023-12-20T09:33:58;5.60;99.90
22996;DHT22;11664;49.774;8.650;2023-12-20T09:36:27;5.60;99.90
22996;DHT22;11664;49.774;8.650;2023-12-20T09:38:59;5.70;99.90
22996;DHT22;11664;49.774;8.650;2023-12-20T09:41:31;5.70;99.90
22996;DHT22;11664;49.774;8.650;2023-12-20T09:44:03;5.80;99.90
22996;DHT22;11664;49.774;8.650;2023-12-20T09:46:29;5.80;99.90
22996;DHT22;11664;49.774;8.650;2023-12-20T09:49:05;5.80;99.90
22996;DHT22;11664;49.774;8.650;2023-12-20T09:51:34;5.90;99.90
22996;DHT22;11664;49.774;8.650;2023-12-20T09:54:06;5.90;99.90
22996;DHT22;11664;49.774;8.650;2023-12-20T09:56:35;6.00;99.90
22996;DHT22;11664;49.774;8.650;2023-12-20T09:59:00;6.00;99.90
22996;DHT22;11664;49.774;8.650;2023-12-20T10:01:27;6.00;99.90
22996;DHT22;11664;49.774;8.650;2023-12-20T10:03:57;6.00;99.90
22996;DHT22;11664;49.774;8.650;2023-12-20T10:06:28;5.90;99.90
22996;DHT22;11664;49.774;8.650;2023-12-20T10:08:59;6.00;99.90
22996;DHT22;11664;49.774;8.650;2023-12-20T10:11:28;6.00;99.90
22996;DHT22;11664;49.774;8.650;2023-12-20T10:14:04;6.00;99.90
22996;DHT22;11664;49.774;8.650;2023-12-20T10:16:31;6.00;99.90
22996;DHT22;11664;49.774;8.650;2023-12-20T10:18:58;6.00;99.90
22996;DHT22;11664;49.774;8.650;2023-12-20T10:21:26;6.00;99.90
22996;DHT22;11664;49.774;8.650;2023-12-20T10:23:54;6.10;99.90
22996;DHT22;11664;49.774;8.650;2023-12-20T10:26:41;6.10;99.90
22996;DHT22;11664;49.774;8.650;2023-12-20T10:29:06;6.10;99.90
22996;DHT22;11664;49.774;8.650;2023-12-20T10:31:34;6.20;99.90
22996;DHT22;11664;49.774;8.650;2023-12-20T10:34:01;6.20;99.90
22996;DHT22;11664;49.774;8.650;2023-12-20T10:36:28;6.20;99.90
22996;DHT22;11664;49.774;8.650;2023-12-20T10:39:09;6.20;99.90
22996;DHT22;11664;49.774;8.650;2023-12-20T10:41:35;6.30;99.90
22996;DHT22;11664;49.774;8.650;2023-12-20T10:44:06;6.30;99.90
22996;DHT22;11664;49.774;8.650;2023-12-20T10:46:34;6.30;99.90
22996;DHT22;11664;49.774;8.650;2023-12-20T10:49:02;6.30;99.90
22996;DHT22;11664;49.774;8.650;2023-12-20T10:51:34;6.30;99.90
22996;DHT22;11664;49.774;8.650;2023-12-20T10:54:00;6.30;99.90
22996;DHT22;11664;49.774;8.650;2023-12-20T10:56:32;6.40;99.90
22996;DHT22;11664;49.774;8.650;2023-12-20T10:59:05;6.40;99.90
22996;DHT22;11664;49.774;8.650;2023-12-20T11:01:33;6.40;99.90
22996;DHT22;11664;49.774;8.650;2023-12-20T11:04:00;6.40;99.90
22996;DHT22;11664;49.774;8.650;2023-12-20T11:06:49;6.40;99.90
22996;DHT22;11664;49.774;8.650;2023-12-20T11:09:24;6.30;99.90
22996;DHT22;11664;49.774;8.650;2023-12-20T11:14:55;6.40;99.90
22996;DHT22;11664;49.774;8.650;2023-12-20T11:17:39;6.40;99.90
22996;DHT22;11664;49.774;8.650;2023-12-20T11:20:09;6.40;99.90
22996;DHT22;11664;49.774;8.650;2023-12-20T11:22:37;6.40;99.90
22996;DHT22;11664;49.774;8.650;2023-12-20T11:25:09;6.40;99.90
22996;DHT22;11664;49.774;8.650;2023-12-20T11:27:36;6.40;99.90
22996;DHT22;11664;49.774;8.650;2023-12-20T11:30:05;6.40;99.90
22996;DHT22;11664;49.774;8.650;2023-12-20T11:32:40;6.40;99.90
22996;DHT22;11664;49.774;8.650;2023-12-20T11:35:20;6.40;99.90
22996;DHT22;11664;49.774;8.650;2023-12-20T11:37:51;6.40;99.90
22996;DHT22;11664;49.774;8.650;2023-12-20T11:40:18;6.40;99.90
22996;DHT22;11664;49.774;8.650;2023-12-20T11:42:50;6.40;99.90
22996;DHT22;11664;49.774;8.650;2023-12-20T11:45:29;6.40;99.90
22996;DHT22;11664;49.774;8.650;2023-12-20T11:48:01;6.40;99.90
22996;DHT22;11664;49.774;8.650;2023-12-20T11:50:28;6.40;99.90
22996;DHT22;11664;49.774;8.650;2023-12-20T11:52:57;6.40;99.90
22996;DHT22;11664;49.774;8.650;2023-12-20T11:55:29;6.40;99.90
22996;DHT22;11664;49.774;8.650;2023-12-20T11:58:10;6.40;99.90
22996;DHT22;11664;49.774;8.650;2023-12-20T12:00:38;6.40;99.90
22996;DHT22;11664;49.774;8.650;2023-12-20T12:03:13;6.40;99.90
22996;DHT22;11664;49.774;8.650;2023-12-20T12:05:47;6.40;99.90
22996;DHT22;11664;49.774;8.650;2023-12-20T12:08:16;6.40;99.90
22996;DHT22;11664;49.774;8.650;2023-12-20T12:10:48;6.40;99.90
22996;DHT22;11664;49.774;8.650;2023-12-20T12:13:17;6.40;99.90
22996;DHT22;11664;49.774;8.650;2023-12-20T12:15:49;6.40;99.90
22996;DHT22;11664;49.774;8.650;2023-12-20T12:18:16;6.40;99.90
22996;DHT22;11664;49.774;8.650;2023-12-20T12:20:48;6.40;99.90
22996;DHT22;11664;49.774;8.650;2023-12-20T12:23:23;6.30;99.90
22996;DHT22;11664;49.774;8.650;2023-12-20T12:25:49;6.40;99.90
22996;DHT22;11664;49.774;8.650;2023-12-20T12:28:14;6.40;99.90
22996;DHT22;11664;49.774;8.650;2023-12-20T12:30:56;6.40;99.90
22996;DHT22;11664;49.774;8.650;2023-12-20T12:33:57;6.40;99.90
22996;DHT22;11664;49.774;8.650;2023-12-20T12:36:25;6.40;99.90
22996;DHT22;11664;49.774;8.650;2023-12-20T12:39:06;6.30;99.90
22996;DHT22;11664;49.774;8.650;2023-12-20T12:41:32;6.40;99.90
22996;DHT22;11664;49.774;8.650;2023-12-20T12:44:06;6.40;99.90
22996;DHT22;11664;49.774;8.650;2023-12-20T12:46:32;6.40;99.90
22996;DHT22;11664;49.774;8.650;2023-12-20T12:49:01;6.50;99.90
22996;DHT22;11664;49.774;8.650;2023-12-20T12:51:26;6.70;99.90
22996;DHT22;11664;49.774;8.650;2023-12-20T12:53:58;6.80;99.90
22996;DHT22;11664;49.774;8.650;2023-12-20T12:56:24;7.00;99.90
22996;DHT22;11664;49.774;8.650;2023-12-20T12:58:52;6.90;99.90
22996;DHT22;11664;49.774;8.650;2023-12-20T13:01:24;6.90;99.90
22996;DHT22;11664;49.774;8.650;2023-12-20T13:03:50;6.90;99.90
22996;DHT22;11664;49.774;8.650;2023-12-20T13:06:16;6.90;99.90
22996;DHT22;11664;49.774;8.650;2023-12-20T13:08:49;6.80;99.90
22996;DHT22;11664;49.774;8.650;2023-12-20T13:11:15;6.80;99.90
22996;DHT22;11664;49.774;8.650;2023-12-20T13:13:55;6.90;99.90
22996;DHT22;11664;49.774;8.650;2023-12-20T13:16:36;7.00;99.90
22996;DHT22;11664;49.774;8.650;2023-12-20T13:19:01;7.00;99.90
22996;DHT22;11664;49.774;8.650;2023-12-20T13:21:30;6.90;99.90
22996;DHT22;11664;49.774;8.650;2023-12-20T13:23:56;7.00;99.90
22996;DHT22;11664;49.774;8.650;2023-12-20T13:26:21;7.10;99.90
22996;DHT22;11664;49.774;8.650;2023-12-20T13:28:54;7.10;99.90
22996;DHT22;11664;49.774;8.650;2023-12-20T13:31:23;7.20;99.90
22996;DHT22;11664;49.774;8.650;2023-12-20T13:33:54;7.10;99.90
22996;DHT22;11664;49.774;8.650;2023-12-20T13:36:23;7.20;99.90
22996;DHT22;11664;49.774;8.650;2023-12-20T13:38:49;7.30;99.90
22996;DHT22;11664;49.774;8.650;2023-12-20T13:41:23;7.30;99.90
22996;DHT22;11664;49.774;8.650;2023-12-20T13:43:49;7.20;99.90
22996;DHT22;11664;49.774;8.650;2023-12-20T13:46:27;7.30;99.90
22996;DHT22;11664;49.774;8.650;2023-12-20T13:48:58;7.30;99.90
22996;DHT22;11664;49.774;8.650;2023-12-20T13:51:31;7.30;99.90
22996;DHT22;11664;49.774;8.650;2023-12-20T13:53:56;7.20;99.90
22996;DHT22;11664;49.774;8.650;2023-12-20T13:56:23;7.20;99.90
22996;DHT22;11664;49.774;8.650;2023-12-20T13:59:07;7.20;99.90
22996;DHT22;11664;49.774;8.650;2023-12-20T14:01:35;7.20;99.90
22996;DHT22;11664;49.774;8.650;2023-12-20T14:04:16;7.20;99.90
22996;DHT22;11664;49.774;8.650;2023-12-20T14:06:45;7.30;99.90
22996;DHT22;11664;49.774;8.650;2023-12-20T14:09:19;7.40;99.90
22996;DHT22;11664;49.774;8.650;2023-12-20T14:11:45;7.50;99.90
22996;DHT22;11664;49.774;8.650;2023-12-20T14:14:15;7.60;99.90
22996;DHT22;11664;49.774;8.650;2023-12-20T14:16:41;7.40;99.90
22996;DHT22;11664;49.774;8.650;2023-12-20T14:19:16;7.30;99.90
22996;DHT22;11664;49.774;8.650;2023-12-20T14:21:47;7.30;99.90
22996;DHT22;11664;49.774;8.650;2023-12-20T14:24:13;7.20;99.90
22996;DHT22;11664;49.774;8.650;2023-12-20T14:26:48;7.20;99.90
22996;DHT22;11664;49.774;8.650;2023-12-20T14:29:13;7.20;99.90
22996;DHT22;11664;49.774;8.650;2023-12-20T14:31:42;7.20;99.90
22996;DHT22;11664;49.774;8.650;2023-12-20T14:34:19;7.10;99.90
22996;DHT22;11664;49.774;8.650;2023-12-20T14:36:51;7.10;99.90
22996;DHT22;11664;49.774;8.650;2023-12-20T14:39:36;7.10;99.90
22996;DHT22;11664;49.774;8.650;2023-12-20T14:42:07;7.00;99.90
22996;DHT22;11664;49.774;8.650;2023-12-20T14:44:38;7.00;99.90
22996;DHT22;11664;49.774;8.650;2023-12-20T14:47:07;7.00;99.90
22996;DHT22;11664;49.774;8.650;2023-12-20T14:49:35;7.00;99.90
22996;DHT22;11664;49.774;8.650;2023-12-20T14:52:08;7.00;99.90
22996;DHT22;11664;49.774;8.650;2023-12-20T14:54:37;7.00;99.90
22996;DHT22;11664;49.774;8.650;2023-12-20T14:57:03;7.00;99.90
22996;DHT22;11664;49.774;8.650;2023-12-20T14:59:47;7.10;99.90
22996;DHT22;11664;49.774;8.650;2023-12-20T15:02:13;7.10;99.90
22996;DHT22;11664;49.774;8.650;2023-12-20T15:04:38;7.10;99.90
22996;DHT22;11664;49.774;8.650;2023-12-20T15:07:08;7.00;99.90
22996;DHT22;11664;49.774;8.650;2023-12-20T15:09:39;7.00;99.90
22996;DHT22;11664;49.774;8.650;2023-12-20T15:12:08;7.00;99.90
22996;DHT22;11664;49.774;8.650;2023-12-20T15:14:55;6.90;99.90
22996;DHT22;11664;49.774;8.650;2023-12-20T15:17:24;6.80;99.90
22996;DHT22;11664;49.774;8.650;2023-12-20T15:19:57;6.80;99.90
22996;DHT22;11664;49.774;8.650;2023-12-20T15:22:22;6.70;99.90
22996;DHT22;11664;49.774;8.650;2023-12-20T15:24:58;6.70;99.90
22996;DHT22;11664;49.774;8.650;2023-12-20T15:27:23;6.70;99.90
22996;DHT22;11664;49.774;8.650;2023-12-20T15:29:59;6.60;99.90
22996;DHT22;11664;49.774;8.650;2023-12-20T15:32:24;6.60;99.90
22996;DHT22;11664;49.774;8.650;2023-12-20T15:34:59;6.60;99.90
22996;DHT22;11664;49.774;8.650;2023-12-20T15:37:24;6.60;99.90
22996;DHT22;11664;49.774;8.650;2023-12-20T15:39:52;6.50;99.90
22996;DHT22;11664;49.774;8.650;2023-12-20T15:42:24;6.50;99.90
22996;DHT22;11664;49.774;8.650;2023-12-20T15:44:49;6.50;99.90
22996;DHT22;11664;49.774;8.650;2023-12-20T15:47:22;6.50;99.90
22996;DHT22;11664;49.774;8.650;2023-12-20T15:49:50;6.50;99.90
22996;DHT22;11664;49.774;8.650;2023-12-20T15:52:19;6.50;99.90
22996;DHT22;11664;49.774;8.650;2023-12-20T15:54:44;6.50;99.90
22996;DHT22;11664;49.774;8.650;2023-12-20T15:57:11;6.50;99.90
22996;DHT22;11664;49.774;8.650;2023-12-20T16:00:02;6.50;99.90
22996;DHT22;11664;49.774;8.650;2023-12-20T16:02:31;6.50;99.90
22996;DHT22;11664;49.774;8.650;2023-12-20T16:05:02;6.50;99.90
22996;DHT22;11664;49.774;8.650;2023-12-20T16:07:37;6.50;99.90
22996;DHT22;11664;49.774;8.650;2023-12-20T16:10:06;6.50;99.90
22996;DHT22;11664;49.774;8.650;2023-12-20T16:12:32;6.40;99.90
22996;DHT22;11664;49.774;8.650;2023-12-20T16:15:01;6.40;99.90